createdAt,value
2018-10-06T00:01:35.726Z,2.33
2018-10-06T00:04:03.250Z,2.30
2018-10-06T00:06:30.863Z,2.20
2018-10-06T00:08:58.474Z,2.00
2018-10-06T00:11:26.150Z,2.30
2018-10-06T00:13:53.686Z,2.20
2018-10-06T00:16:21.320Z,2.10
2018-10-06T00:18:48.869Z,2.20
2018-10-06T00:21:16.499Z,2.20
2018-10-06T00:23:44.033Z,2.77
2018-10-06T00:26:11.655Z,2.30
2018-10-06T00:28:39.178Z,2.17
2018-10-06T00:31:06.797Z,2.20
2018-10-06T00:33:34.411Z,1.97
2018-10-06T00:36:01.934Z,2.50
2018-10-06T00:38:29.555Z,1.87
2018-10-06T00:40:57.166Z,2.30
2018-10-06T00:43:24.796Z,2.23
2018-10-06T00:45:52.318Z,2.27
2018-10-06T00:48:19.955Z,2.60
2018-10-06T00:50:47.567Z,1.97
2018-10-06T00:53:15.174Z,2.43
2018-10-06T00:55:42.775Z,2.60
2018-10-06T00:58:10.310Z,2.60
2018-10-06T01:00:37.918Z,3.07
2018-10-06T01:03:05.579Z,3.07
2018-10-06T01:05:33.203Z,2.97
2018-10-06T01:08:00.726Z,3.07
2018-10-06T01:10:28.444Z,3.23
2018-10-06T01:12:56.251Z,3.53
2018-10-06T01:15:23.921Z,3.83
2018-10-06T01:17:51.450Z,3.87
2018-10-06T01:20:19.083Z,3.57
2018-10-06T01:22:46.704Z,3.40
2018-10-06T01:25:14.237Z,3.20
2018-10-06T01:27:41.846Z,3.23
2018-10-06T01:30:09.378Z,2.90
2018-10-06T01:32:37.000Z,2.33
2018-10-06T01:35:04.562Z,3.20
2018-10-06T01:37:32.174Z,3.40
2018-10-06T01:39:59.712Z,2.73
2018-10-06T01:42:27.269Z,3.13
2018-10-06T01:44:54.932Z,2.30
2018-10-06T01:47:22.550Z,2.67
2018-10-06T01:49:50.184Z,2.80
2018-10-06T01:52:17.802Z,2.80
2018-10-06T01:54:45.414Z,2.70
2018-10-06T01:57:13.045Z,2.93
2018-10-06T01:59:40.646Z,2.63
2018-10-06T02:02:08.161Z,2.80
2018-10-06T02:04:35.773Z,2.60
2018-10-06T02:07:03.418Z,3.77
2018-10-06T02:09:31.043Z,4.07
2018-10-06T02:11:58.573Z,3.77
2018-10-06T02:14:26.221Z,3.97
2018-10-06T02:16:53.859Z,4.60
2018-10-06T02:19:21.478Z,4.70
2018-10-06T02:21:49.134Z,4.93
2018-10-06T02:24:16.745Z,3.77
2018-10-06T02:26:44.434Z,4.47
2018-10-06T02:29:11.982Z,3.90
2018-10-06T02:31:39.602Z,3.93
2018-10-06T02:34:07.166Z,4.30
2018-10-06T02:36:34.830Z,3.70
2018-10-06T02:39:03.038Z,3.97
2018-10-06T02:41:30.681Z,3.83
2018-10-06T02:43:58.327Z,4.13
2018-10-06T02:46:25.971Z,3.53
2018-10-06T02:48:53.498Z,4.23
2018-10-06T02:51:21.102Z,4.40
2018-10-06T02:53:48.635Z,3.60
2018-10-06T02:56:16.256Z,4.37
2018-10-06T02:58:43.855Z,4.10
2018-10-06T03:01:11.486Z,4.00
2018-10-06T03:03:39.018Z,4.53
2018-10-06T03:06:06.723Z,4.10
2018-10-06T03:08:34.390Z,3.70
2018-10-06T03:11:02.014Z,4.47
2018-10-06T03:13:30.046Z,3.63
2018-10-06T03:15:57.760Z,3.60
2018-10-06T03:18:25.395Z,3.93
2018-10-06T03:20:52.929Z,3.53
2018-10-06T03:23:20.443Z,4.07
2018-10-06T03:25:48.054Z,3.70
2018-10-06T03:28:15.695Z,4.40
2018-10-06T03:30:43.226Z,3.77
2018-10-06T03:33:10.898Z,2.90
2018-10-06T03:35:38.511Z,3.57
2018-10-06T03:38:06.115Z,3.50
2018-10-06T03:40:33.731Z,4.13
2018-10-06T03:43:01.378Z,3.50
2018-10-06T03:45:28.881Z,3.97
2018-10-06T03:47:56.378Z,4.50
2018-10-06T03:50:23.990Z,3.70
2018-10-06T03:52:51.504Z,3.20
2018-10-06T03:55:19.119Z,3.97
2018-10-06T03:57:46.626Z,3.47
2018-10-06T04:00:14.286Z,3.77
2018-10-06T04:02:41.818Z,3.93
2018-10-06T04:05:09.434Z,4.20
2018-10-06T04:07:36.964Z,4.37
2018-10-06T04:10:04.598Z,3.47
2018-10-06T04:12:32.267Z,3.87
2018-10-06T04:14:59.887Z,3.73
2018-10-06T04:17:27.502Z,3.93
2018-10-06T04:19:55.050Z,3.57
2018-10-06T04:22:29.362Z,4.23
2018-10-06T04:24:56.881Z,3.77
2018-10-06T04:27:24.448Z,4.10
2018-10-06T04:29:52.046Z,4.30
2018-10-06T04:32:19.652Z,4.80
2018-10-06T04:34:47.194Z,4.90
2018-10-06T04:37:14.824Z,4.17
2018-10-06T04:39:42.349Z,4.43
2018-10-06T04:42:09.955Z,3.67
2018-10-06T04:44:37.601Z,3.57
2018-10-06T04:47:05.271Z,3.43
2018-10-06T04:49:32.794Z,4.10
2018-10-06T04:52:00.422Z,3.47
2018-10-06T04:54:28.063Z,3.77
2018-10-06T04:56:55.706Z,3.43
2018-10-06T04:59:23.328Z,3.73
2018-10-06T05:01:50.954Z,3.33
2018-10-06T05:04:18.601Z,3.63
2018-10-06T05:06:46.219Z,3.87
2018-10-06T05:09:13.741Z,3.50
2018-10-06T05:11:41.274Z,3.83
2018-10-06T05:14:08.890Z,3.73
2018-10-06T05:16:36.527Z,3.60
2018-10-06T05:19:04.122Z,3.70
2018-10-06T05:21:31.656Z,3.80
2018-10-06T05:23:59.185Z,3.63
2018-10-06T05:26:26.827Z,4.40
2018-10-06T05:28:54.471Z,4.00
2018-10-06T05:31:22.102Z,4.13
2018-10-06T05:33:49.621Z,4.00
2018-10-06T05:36:17.130Z,3.73
2018-10-06T05:38:44.753Z,3.57
2018-10-06T05:41:12.256Z,4.23
2018-10-06T05:43:39.878Z,4.03
2018-10-06T05:46:07.429Z,4.20
2018-10-06T05:48:34.949Z,4.13
2018-10-06T05:51:02.506Z,4.87
2018-10-06T05:53:30.117Z,4.40
2018-10-06T05:55:57.668Z,4.40
2018-10-06T05:58:25.292Z,4.90
2018-10-06T06:00:52.918Z,4.47
2018-10-06T06:03:20.434Z,3.50
2018-10-06T06:05:47.934Z,4.17
2018-10-06T06:08:15.474Z,3.70
2018-10-06T06:10:43.005Z,3.20
2018-10-06T06:13:10.642Z,3.60
2018-10-06T06:15:38.320Z,3.17
2018-10-06T06:18:05.810Z,3.40
2018-10-06T06:20:33.446Z,4.00
2018-10-06T06:23:01.054Z,3.53
2018-10-06T06:25:28.696Z,3.57
2018-10-06T06:27:56.327Z,3.33
2018-10-06T06:30:23.860Z,3.13
2018-10-06T06:32:51.465Z,2.93
2018-10-06T06:35:19.003Z,3.27
2018-10-06T06:37:46.802Z,2.93
2018-10-06T06:40:14.351Z,3.20
2018-10-06T06:42:41.878Z,3.00
2018-10-06T06:45:09.471Z,2.67
2018-10-06T06:47:36.990Z,3.10
2018-10-06T06:50:04.557Z,3.13
2018-10-06T06:52:32.073Z,2.90
2018-10-06T06:54:59.743Z,3.13
2018-10-06T06:57:27.318Z,2.57
2018-10-06T06:59:54.868Z,2.57
2018-10-06T07:02:22.390Z,2.80
2018-10-06T07:04:49.916Z,2.77
2018-10-06T07:07:17.609Z,2.73
2018-10-06T07:09:45.238Z,2.73
2018-10-06T07:12:12.870Z,3.00
2018-10-06T07:14:40.403Z,2.80
2018-10-06T07:17:07.941Z,2.70
2018-10-06T07:19:35.603Z,3.30
2018-10-06T07:22:03.232Z,2.43
2018-10-06T07:24:30.914Z,2.50
2018-10-06T07:26:58.568Z,2.67
2018-10-06T07:29:26.186Z,2.70
2018-10-06T07:31:53.705Z,2.67
2018-10-06T07:34:21.308Z,2.97
2018-10-06T07:36:48.846Z,2.70
2018-10-06T07:39:16.374Z,2.77
2018-10-06T07:41:44.017Z,2.67
2018-10-06T07:44:11.550Z,2.30
2018-10-06T07:46:39.090Z,2.10
2018-10-06T07:49:06.661Z,2.63
2018-10-06T07:51:34.285Z,2.70
2018-10-06T07:54:01.887Z,2.70
2018-10-06T07:56:29.508Z,2.63
2018-10-06T07:58:57.254Z,2.40
2018-10-06T08:01:24.892Z,2.57
2018-10-06T08:03:52.462Z,2.30
2018-10-06T08:06:20.048Z,2.20
2018-10-06T08:08:47.546Z,2.30
2018-10-06T08:11:15.191Z,2.60
2018-10-06T08:13:42.850Z,2.40
2018-10-06T08:16:10.379Z,2.17
2018-10-06T08:18:38.094Z,2.37
2018-10-06T08:21:05.622Z,2.53
2018-10-06T08:23:33.636Z,2.17
2018-10-06T08:26:01.235Z,2.00
2018-10-06T08:28:28.857Z,2.13
2018-10-06T08:30:56.493Z,2.10
2018-10-06T08:33:24.086Z,2.17
2018-10-06T08:35:51.622Z,2.00
2018-10-06T08:38:19.155Z,2.30
2018-10-06T08:40:46.674Z,2.13
2018-10-06T08:43:14.222Z,2.37
2018-10-06T08:45:41.843Z,1.90
2018-10-06T08:48:09.506Z,2.07
2018-10-06T08:50:37.245Z,1.97
2018-10-06T08:53:04.905Z,2.13
2018-10-06T08:55:32.431Z,2.20
2018-10-06T08:58:00.050Z,2.00
2018-10-06T09:00:27.569Z,2.30
2018-10-06T09:02:55.111Z,2.20
2018-10-06T09:05:22.753Z,2.40
2018-10-06T09:07:50.295Z,2.33
2018-10-06T09:10:17.919Z,1.97
2018-10-06T09:12:45.441Z,2.27
2018-10-06T09:15:13.070Z,1.60
2018-10-06T09:17:40.656Z,1.90
2018-10-06T09:20:08.222Z,1.80
2018-10-06T09:22:35.862Z,2.10
2018-10-06T09:25:03.426Z,2.07
2018-10-06T09:27:31.054Z,2.00
2018-10-06T09:29:58.799Z,1.80
2018-10-06T09:32:26.465Z,1.83
2018-10-06T09:34:54.183Z,1.43
2018-10-06T09:37:21.966Z,1.70
2018-10-06T09:39:49.626Z,1.60
2018-10-06T09:42:17.376Z,1.87
2018-10-06T09:44:44.775Z,1.50
2018-10-06T09:47:12.373Z,1.57
2018-10-06T09:49:39.912Z,1.50
2018-10-06T09:52:07.474Z,2.00
2018-10-06T09:54:34.997Z,1.90
2018-10-06T09:57:02.610Z,1.50
2018-10-06T09:59:30.131Z,1.37
2018-10-06T10:02:03.244Z,1.30
2018-10-06T10:04:30.862Z,1.67
2018-10-06T10:06:58.503Z,1.23
2018-10-06T10:09:26.237Z,1.70
2018-10-06T10:11:53.867Z,1.57
2018-10-06T10:14:21.490Z,2.43
2018-10-06T10:16:49.167Z,1.80
2018-10-06T10:19:16.658Z,1.90
2018-10-06T10:21:44.250Z,1.50
2018-10-06T10:24:11.705Z,1.40
2018-10-06T10:26:39.326Z,1.43
2018-10-06T10:29:06.883Z,1.00
2018-10-06T10:31:34.422Z,1.50
2018-10-06T10:34:01.947Z,1.50
2018-10-06T10:36:29.583Z,1.10
2018-10-06T10:38:57.126Z,1.30
2018-10-06T10:41:24.771Z,1.43
2018-10-06T10:43:52.319Z,1.20
2018-10-06T10:46:19.991Z,1.57
2018-10-06T10:48:47.654Z,1.33
2018-10-06T10:51:15.295Z,1.30
2018-10-06T10:53:42.886Z,1.30
2018-10-06T10:56:10.505Z,1.47
2018-10-06T10:58:38.119Z,1.33
2018-10-06T11:01:05.808Z,1.40
2018-10-06T11:03:33.301Z,1.10
2018-10-06T11:06:00.977Z,1.10
2018-10-06T11:08:28.599Z,1.37
2018-10-06T11:10:56.293Z,1.98
2018-10-06T11:13:23.834Z,1.70
2018-10-06T11:15:51.451Z,1.47
2018-10-06T11:18:19.084Z,1.20
2018-10-06T11:20:46.618Z,1.47
2018-10-06T11:23:14.133Z,1.57
2018-10-06T11:25:41.660Z,1.57
2018-10-06T11:28:09.221Z,1.20
2018-10-06T11:30:36.843Z,1.30
2018-10-06T11:33:04.510Z,1.40
2018-10-06T11:35:32.135Z,1.30
2018-10-06T11:37:59.835Z,1.50
2018-10-06T11:40:27.329Z,1.10
2018-10-06T11:42:54.858Z,1.20
2018-10-06T11:45:22.393Z,1.60
2018-10-06T11:47:49.914Z,1.30
2018-10-06T11:50:17.496Z,1.33
2018-10-06T11:52:44.981Z,1.60
2018-10-06T11:55:12.606Z,1.30
2018-10-06T11:57:40.279Z,1.67
2018-10-06T12:00:08.148Z,1.30
2018-10-06T12:02:35.562Z,1.63
2018-10-06T12:05:03.153Z,1.50
2018-10-06T12:07:30.882Z,1.57
2018-10-06T12:09:58.393Z,1.60
2018-10-06T12:12:27.307Z,1.73
2018-10-06T12:14:54.933Z,1.30
2018-10-06T12:17:22.518Z,1.70
2018-10-06T12:19:50.132Z,1.53
2018-10-06T12:22:17.857Z,2.10
2018-10-06T12:24:45.374Z,2.47
2018-10-06T12:27:12.921Z,2.60
2018-10-06T12:29:40.498Z,2.37
2018-10-06T12:32:08.150Z,1.87
2018-10-06T12:34:35.938Z,1.83
2018-10-06T12:37:03.501Z,2.05
2018-10-06T12:39:31.094Z,2.70
2018-10-06T12:41:58.715Z,6.50
2018-10-06T12:44:26.361Z,5.15
2018-10-06T12:46:53.950Z,4.20
2018-10-06T12:49:21.639Z,3.60
2018-10-06T12:51:55.901Z,2.70
2018-10-06T12:54:23.535Z,2.55
2018-10-06T12:56:51.077Z,2.05
2018-10-06T12:59:18.702Z,1.60
2018-10-06T13:01:46.230Z,1.43
2018-10-06T13:04:13.897Z,2.00
2018-10-06T13:06:43.019Z,1.50
2018-10-06T13:09:11.492Z,1.47
2018-10-06T13:11:39.318Z,1.70
2018-10-06T13:14:07.153Z,1.50
2018-10-06T13:16:34.926Z,1.75
2018-10-06T13:19:02.511Z,1.47
2018-10-06T13:21:30.142Z,1.32
2018-10-06T13:23:57.682Z,1.50
2018-10-06T13:26:25.332Z,1.82
2018-10-06T13:28:52.862Z,1.57
2018-10-06T13:31:20.488Z,1.40
2018-10-06T13:33:48.147Z,1.37
2018-10-06T13:36:15.682Z,1.30
2018-10-06T13:38:43.189Z,1.35
2018-10-06T13:41:11.973Z,1.30
2018-10-06T13:43:39.494Z,1.52
2018-10-06T13:46:07.256Z,1.72
2018-10-06T13:48:34.837Z,1.40
2018-10-06T13:51:02.362Z,1.60
2018-10-06T13:53:29.921Z,1.30
2018-10-06T13:55:57.546Z,1.45
2018-10-06T13:58:25.147Z,1.60
2018-10-06T14:00:52.661Z,1.45
2018-10-06T14:03:20.351Z,1.52
2018-10-06T14:05:48.682Z,1.27
2018-10-06T14:08:16.338Z,1.40
2018-10-06T14:10:44.070Z,0.90
2018-10-06T14:13:11.637Z,1.05
2018-10-06T14:15:39.258Z,1.00
2018-10-06T14:18:06.820Z,1.15
2018-10-06T14:20:34.437Z,0.95
2018-10-06T14:23:02.105Z,1.10
2018-10-06T14:25:36.302Z,1.00
2018-10-06T14:28:04.163Z,0.93
2018-10-06T14:30:31.708Z,1.00
2018-10-06T14:32:59.342Z,0.90
2018-10-06T14:35:26.882Z,1.02
2018-10-06T14:37:54.502Z,1.10
2018-10-06T14:40:22.413Z,1.00
2018-10-06T14:42:50.026Z,0.93
2018-10-06T14:45:17.558Z,1.10
2018-10-06T14:47:45.180Z,1.10
2018-10-06T14:50:12.764Z,1.05
2018-10-06T14:52:40.229Z,1.30
2018-10-06T14:55:08.006Z,0.93
2018-10-06T14:57:35.641Z,1.20
2018-10-06T15:00:03.257Z,2.37
2018-10-06T15:02:30.878Z,4.10
2018-10-06T15:04:58.394Z,3.95
2018-10-06T15:07:25.941Z,2.50
2018-10-06T15:09:53.453Z,1.60
2018-10-06T15:12:20.974Z,1.10
2018-10-06T15:14:48.513Z,2.20
2018-10-06T15:17:16.046Z,1.70
2018-10-06T15:19:43.565Z,1.50
2018-10-06T15:22:11.090Z,1.30
2018-10-06T15:24:38.682Z,1.35
2018-10-06T15:27:06.213Z,1.27
2018-10-06T15:29:33.837Z,1.23
2018-10-06T15:32:01.337Z,1.10
2018-10-06T15:34:28.939Z,1.40
2018-10-06T15:36:56.575Z,0.90
2018-10-06T15:39:24.111Z,1.12
2018-10-06T15:41:51.646Z,1.12
2018-10-06T15:44:19.177Z,1.00
2018-10-06T15:46:46.715Z,1.17
2018-10-06T15:49:14.222Z,1.20
2018-10-06T15:51:41.741Z,0.90
2018-10-06T15:54:09.542Z,1.50
2018-10-06T15:56:37.225Z,1.20
2018-10-06T15:59:04.934Z,1.27
2018-10-06T16:01:32.470Z,1.27
2018-10-06T16:03:59.998Z,1.30
2018-10-06T16:06:27.519Z,1.83
2018-10-06T16:08:55.106Z,1.30
2018-10-06T16:11:22.734Z,1.50
2018-10-06T16:13:50.334Z,1.40
2018-10-06T16:16:17.848Z,1.40
2018-10-06T16:18:45.546Z,1.47
2018-10-06T16:21:13.074Z,1.30
2018-10-06T16:23:40.703Z,1.50
2018-10-06T16:26:08.226Z,1.50
2018-10-06T16:28:35.798Z,1.50
2018-10-06T16:31:03.447Z,1.30
2018-10-06T16:33:31.084Z,1.80
2018-10-06T16:35:58.743Z,1.77
2018-10-06T16:38:26.254Z,1.87
2018-10-06T16:40:53.905Z,1.97
2018-10-06T16:43:21.437Z,1.70
2018-10-06T16:45:49.065Z,1.60
2018-10-06T16:48:16.714Z,1.70
2018-10-06T16:50:44.290Z,1.67
2018-10-06T16:53:11.899Z,1.87
2018-10-06T16:55:39.526Z,2.03
2018-10-06T16:58:07.178Z,1.80
2018-10-06T17:00:34.747Z,1.80
2018-10-06T17:03:03.084Z,1.93
2018-10-06T17:05:30.615Z,2.10
2018-10-06T17:07:58.114Z,2.27
2018-10-06T17:10:25.727Z,2.47
2018-10-06T17:12:53.436Z,2.57
2018-10-06T17:15:21.006Z,2.70
2018-10-06T17:17:49.198Z,2.50
2018-10-06T17:20:16.750Z,1.97
2018-10-06T17:22:44.375Z,2.03
2018-10-06T17:25:11.983Z,2.20
2018-10-06T17:27:39.570Z,2.33
2018-10-06T17:30:07.126Z,2.57
2018-10-06T17:32:34.638Z,2.40
2018-10-06T17:35:02.170Z,2.30
2018-10-06T17:37:29.795Z,2.57
2018-10-06T17:39:57.362Z,2.37
2018-10-06T17:42:24.930Z,2.80
2018-10-06T17:44:52.569Z,2.77
2018-10-06T17:47:20.227Z,3.40
2018-10-06T17:49:47.792Z,3.43
2018-10-06T17:52:15.490Z,3.20
2018-10-06T17:54:43.130Z,3.77
2018-10-06T17:57:10.834Z,3.57
2018-10-06T17:59:38.482Z,3.20
2018-10-06T18:02:06.418Z,2.87
2018-10-06T18:04:34.035Z,3.27
2018-10-06T18:07:01.639Z,3.00
2018-10-06T18:09:29.608Z,3.27
2018-10-06T18:11:57.254Z,2.53
2018-10-06T18:14:24.873Z,3.00
2018-10-06T18:16:52.527Z,2.87
2018-10-06T18:19:20.062Z,7.23
2018-10-06T18:21:47.622Z,8.57
2018-10-06T18:24:15.142Z,5.97
2018-10-06T18:26:42.915Z,4.27
2018-10-06T18:29:10.617Z,3.30
2018-10-06T18:31:38.667Z,2.83
2018-10-06T18:34:06.446Z,2.77
2018-10-06T18:36:34.370Z,2.73
2018-10-06T18:39:01.864Z,2.93
2018-10-06T18:41:29.434Z,3.40
2018-10-06T18:43:56.986Z,3.10
2018-10-06T18:46:24.626Z,3.00
2018-10-06T18:48:52.175Z,2.83
2018-10-06T18:51:19.712Z,3.10
2018-10-06T18:53:47.294Z,4.37
2018-10-06T18:56:14.933Z,4.80
2018-10-06T18:58:42.580Z,3.70
2018-10-06T19:01:10.186Z,3.30
2018-10-06T19:03:37.794Z,2.80
2018-10-06T19:06:05.350Z,2.73
2018-10-06T19:08:33.002Z,3.13
2018-10-06T19:11:00.534Z,3.07
2018-10-06T19:13:28.121Z,2.90
2018-10-06T19:15:55.738Z,2.63
2018-10-06T19:18:23.362Z,3.43
2018-10-06T19:20:50.883Z,2.93
2018-10-06T19:23:18.439Z,2.90
2018-10-06T19:25:46.106Z,2.90
2018-10-06T19:28:13.715Z,2.93
2018-10-06T19:30:41.339Z,2.93
2018-10-06T19:33:08.870Z,2.50
2018-10-06T19:35:36.395Z,2.50
2018-10-06T19:38:03.914Z,2.83
2018-10-06T19:40:31.457Z,2.93
2018-10-06T19:42:58.999Z,2.80
2018-10-06T19:45:26.568Z,2.80
2018-10-06T19:47:54.195Z,2.60
2018-10-06T19:50:21.805Z,3.30
2018-10-06T19:52:49.409Z,3.07
2018-10-06T19:55:16.936Z,2.50
2018-10-06T19:57:44.575Z,2.63
2018-10-06T20:00:12.219Z,2.20
2018-10-06T20:02:39.758Z,2.23
2018-10-06T20:05:07.270Z,2.73
2018-10-06T20:07:34.810Z,2.50
2018-10-06T20:10:02.442Z,2.77
2018-10-06T20:12:29.998Z,2.70
2018-10-06T20:14:57.850Z,2.70
2018-10-06T20:19:59.584Z,2.50
2018-10-06T20:22:27.089Z,2.73
2018-10-06T20:24:54.923Z,3.20
2018-10-06T20:27:22.581Z,3.63
2018-10-06T20:29:50.105Z,3.13
2018-10-06T20:32:17.656Z,3.17
2018-10-06T20:34:45.281Z,2.80
2018-10-06T20:37:12.812Z,3.00
2018-10-06T20:39:40.427Z,3.20
2018-10-06T20:42:08.094Z,3.40
2018-10-06T20:44:42.578Z,3.20
2018-10-06T20:47:10.211Z,3.37
2018-10-06T20:49:37.841Z,3.10
2018-10-06T20:52:05.735Z,3.00
2018-10-06T20:54:33.269Z,2.40
2018-10-06T20:57:00.842Z,2.70
2018-10-06T20:59:28.385Z,3.10
2018-10-06T21:01:56.183Z,3.40
2018-10-06T21:04:23.697Z,2.07
2018-10-06T21:06:51.328Z,2.57
2018-10-06T21:09:18.968Z,2.20
2018-10-06T21:11:46.489Z,2.40
2018-10-06T21:14:14.209Z,2.10
2018-10-06T21:16:41.758Z,2.40
2018-10-06T21:19:09.302Z,2.20
2018-10-06T21:21:36.869Z,2.50
2018-10-06T21:24:04.596Z,2.33
2018-10-06T21:26:32.154Z,3.17
2018-10-06T21:28:59.801Z,3.03
2018-10-06T21:31:27.425Z,3.57
2018-10-06T21:33:55.046Z,3.17
2018-10-06T21:36:22.703Z,3.87
2018-10-06T21:38:50.297Z,3.60
2018-10-06T21:41:17.902Z,3.23
2018-10-06T21:43:45.622Z,3.57
2018-10-06T21:46:13.290Z,3.30
2018-10-06T21:48:40.817Z,3.43
2018-10-06T21:51:08.353Z,3.03
2018-10-06T21:53:35.963Z,2.83
2018-10-06T21:56:03.489Z,2.90
2018-10-06T21:58:30.993Z,2.70
2018-10-06T22:01:04.008Z,2.27
2018-10-06T22:03:31.593Z,2.30
2018-10-06T22:05:59.089Z,2.47
2018-10-06T22:08:26.732Z,2.63
2018-10-06T22:10:54.387Z,3.17
2018-10-06T22:13:21.906Z,2.50
2018-10-06T22:15:49.534Z,2.30
2018-10-06T22:18:17.172Z,2.13
2018-10-06T22:20:44.773Z,1.93
2018-10-06T22:23:12.322Z,2.10
2018-10-06T22:25:39.841Z,3.10
2018-10-06T22:28:07.410Z,2.50
2018-10-06T22:30:35.038Z,2.20
2018-10-06T22:33:02.674Z,2.40
2018-10-06T22:35:30.226Z,2.00
2018-10-06T22:37:57.905Z,1.77
2018-10-06T22:40:25.617Z,2.37
2018-10-06T22:42:53.250Z,2.10
2018-10-06T22:45:20.796Z,2.37
2018-10-06T22:47:48.320Z,2.40
2018-10-06T22:50:15.965Z,2.20
2018-10-06T22:52:43.497Z,1.83
2018-10-06T22:55:11.023Z,1.90
2018-10-06T22:57:38.545Z,2.20
2018-10-06T23:00:06.215Z,2.23
2018-10-06T23:02:34.065Z,2.60
2018-10-06T23:05:01.702Z,1.90
2018-10-06T23:07:29.246Z,2.37
2018-10-06T23:09:56.774Z,2.27
2018-10-06T23:12:24.508Z,2.40
2018-10-06T23:14:52.196Z,2.67
2018-10-06T23:17:19.902Z,2.30
2018-10-06T23:19:47.455Z,2.33
2018-10-06T23:22:21.709Z,1.90
2018-10-06T23:24:49.327Z,2.17
2018-10-06T23:27:16.893Z,2.10
2018-10-06T23:29:44.527Z,2.13
2018-10-06T23:32:12.180Z,2.53
2018-10-06T23:34:39.734Z,2.30
2018-10-06T23:37:07.378Z,2.00
2018-10-06T23:39:34.999Z,2.10
2018-10-06T23:42:02.625Z,2.20
2018-10-06T23:44:30.146Z,2.20
2018-10-06T23:46:57.778Z,2.17
2018-10-06T23:49:25.290Z,2.00
2018-10-06T23:51:52.903Z,2.60
2018-10-06T23:54:20.431Z,2.40
2018-10-06T23:56:47.988Z,2.73
2018-10-06T23:59:15.621Z,3.10
